sensor_id;sensor_type;location;lat;lon;timestamp;pressure;altitude;pressure_sealevel;temperature;humidity
62800;BME280;48842;51.046;13.796;2023-04-23T00:00:54;99574.59;;;17.71;nan
62800;BME280;48842;51.046;13.796;2023-04-23T00:03:21;99576.44;;;17.69;nan
62800;BME280;48842;51.046;13.796;2023-04-23T00:05:50;99576.50;;;17.68;nan
62800;BME280;48842;51.046;13.796;2023-04-23T00:08:17;99577.41;;;17.67;nan
62800;BME280;48842;51.046;13.796;2023-04-23T00:10:42;99576.66;;;17.63;nan
62800;BME280;48842;51.046;13.796;2023-04-23T00:13:08;99573.25;;;17.59;nan
62800;BME280;48842;51.046;13.796;2023-04-23T00:15:34;99574.19;;;17.58;nan
62800;BME280;48842;51.046;13.796;2023-04-23T00:17:59;99568.97;;;17.57;nan
62800;BME280;48842;51.046;13.796;2023-04-23T00:20:24;99569.03;;;17.55;nan
62800;BME280;48842;51.046;13.796;2023-04-23T00:22:50;99564.69;;;17.53;nan
62800;BME280;48842;51.046;13.796;2023-04-23T00:25:15;99559.47;;;17.51;nan
62800;BME280;48842;51.046;13.796;2023-04-23T00:27:40;99560.38;;;17.50;nan
62800;BME280;48842;51.046;13.796;2023-04-23T00:30:06;99551.63;;;17.48;nan
62800;BME280;48842;51.046;13.796;2023-04-23T00:32:33;99557.03;;;17.45;nan
62800;BME280;48842;51.046;13.796;2023-04-23T00:34:58;99543.88;;;17.42;nan
62800;BME280;48842;51.046;13.796;2023-04-23T00:37:23;99544.84;;;17.41;nan
62800;BME280;48842;51.046;13.796;2023-04-23T00:39:48;99544.00;;;17.39;nan
62800;BME280;48842;51.046;13.796;2023-04-23T00:42:14;99555.53;;;17.38;nan
62800;BME280;48842;51.046;13.796;2023-04-23T00:44:41;99551.16;;;17.37;nan
62800;BME280;48842;51.046;13.796;2023-04-23T00:47:07;99550.31;;;17.36;nan
62800;BME280;48842;51.046;13.796;2023-04-23T00:49:33;99549.41;;;17.36;nan
62800;BME280;48842;51.046;13.796;2023-04-23T00:51:58;99543.34;;;17.34;nan
62800;BME280;48842;51.046;13.796;2023-04-23T00:54:25;99543.38;;;17.32;nan
62800;BME280;48842;51.046;13.796;2023-04-23T00:56:50;99550.44;;;17.32;nan
62800;BME280;48842;51.046;13.796;2023-04-23T00:59:15;99539.13;;;17.28;nan
62800;BME280;48842;51.046;13.796;2023-04-23T01:01:41;99545.38;;;17.25;nan
62800;BME280;48842;51.046;13.796;2023-04-23T01:04:06;99547.25;;;17.23;nan
62800;BME280;48842;51.046;13.796;2023-04-23T01:06:33;99541.13;;;17.21;nan
62800;BME280;48842;51.046;13.796;2023-04-23T01:08:59;99543.88;;;17.18;nan
62800;BME280;48842;51.046;13.796;2023-04-23T01:11:24;99548.44;;;17.15;nan
62800;BME280;48842;51.046;13.796;2023-04-23T01:13:50;99544.09;;;17.12;nan
62800;BME280;48842;51.046;13.796;2023-04-23T01:16:15;99548.56;;;17.12;nan
62800;BME280;48842;51.046;13.796;2023-04-23T01:18:41;99550.38;;;17.09;nan
62800;BME280;48842;51.046;13.796;2023-04-23T01:21:09;99548.72;;;17.07;nan
62800;BME280;48842;51.046;13.796;2023-04-23T01:23:35;99551.38;;;17.05;nan
62800;BME280;48842;51.046;13.796;2023-04-23T01:26:01;99554.03;;;17.05;nan
62800;BME280;48842;51.046;13.796;2023-04-23T01:28:26;99549.75;;;17.03;nan
62800;BME280;48842;51.046;13.796;2023-04-23T01:30:52;99545.41;;;17.00;nan
62800;BME280;48842;51.046;13.796;2023-04-23T01:33:17;99541.91;;;17.00;nan
62800;BME280;48842;51.046;13.796;2023-04-23T01:35:43;99543.72;;;16.98;nan
62800;BME280;48842;51.046;13.796;2023-04-23T01:38:10;99546.50;;;16.95;nan
62800;BME280;48842;51.046;13.796;2023-04-23T01:40:36;99546.59;;;16.91;nan
62800;BME280;48842;51.046;13.796;2023-04-23T01:43:02;99546.72;;;16.88;nan
62800;BME280;48842;51.046;13.796;2023-04-23T01:45:31;99552.03;;;16.87;nan
62800;BME280;48842;51.046;13.796;2023-04-23T01:47:58;99553.00;;;16.84;nan
62800;BME280;48842;51.046;13.796;2023-04-23T01:50:24;99550.47;;;16.81;nan
62800;BME280;48842;51.046;13.796;2023-04-23T01:52:50;99549.63;;;16.79;nan
62800;BME280;48842;51.046;13.796;2023-04-23T01:55:15;99552.28;;;16.79;nan
62800;BME280;48842;51.046;13.796;2023-04-23T01:57:43;99547.09;;;16.76;nan
62800;BME280;48842;51.046;13.796;2023-04-23T02:00:12;99549.78;;;16.74;nan
62800;BME280;48842;51.046;13.796;2023-04-23T02:02:40;99547.19;;;16.73;nan
62800;BME280;48842;51.046;13.796;2023-04-23T02:05:11;99548.16;;;16.70;nan
62800;BME280;48842;51.046;13.796;2023-04-23T02:07:37;99550.84;;;16.69;nan
62800;BME280;48842;51.046;13.796;2023-04-23T02:10:02;99551.84;;;16.66;nan
62800;BME280;48842;51.046;13.796;2023-04-23T02:12:28;99548.38;;;16.64;nan
62800;BME280;48842;51.046;13.796;2023-04-23T02:14:53;99543.16;;;16.63;nan
62800;BME280;48842;51.046;13.796;2023-04-23T02:17:19;99549.34;;;16.62;nan
62800;BME280;48842;51.046;13.796;2023-04-23T02:19:45;99541.41;;;16.62;nan
62800;BME280;48842;51.046;13.796;2023-04-23T02:22:10;99543.25;;;16.60;nan
62800;BME280;48842;51.046;13.796;2023-04-23T02:24:36;99536.16;;;16.60;nan
62800;BME280;48842;51.046;13.796;2023-04-23T02:27:03;99541.50;;;16.58;nan
62800;BME280;48842;51.046;13.796;2023-04-23T02:29:28;99538.00;;;16.58;nan
62800;BME280;48842;51.046;13.796;2023-04-23T02:31:53;99542.44;;;16.57;nan
62800;BME280;48842;51.046;13.796;2023-04-23T02:34:18;99549.56;;;16.55;nan
62800;BME280;48842;51.046;13.796;2023-04-23T02:36:44;99548.75;;;16.53;nan
62800;BME280;48842;51.046;13.796;2023-04-23T02:39:09;99546.16;;;16.52;nan
62800;BME280;48842;51.046;13.796;2023-04-23T02:41:34;99553.22;;;16.51;nan
62800;BME280;48842;51.046;13.796;2023-04-23T02:44:00;99547.06;;;16.51;nan
62800;BME280;48842;51.046;13.796;2023-04-23T02:46:25;99551.50;;;16.50;nan
62800;BME280;48842;51.046;13.796;2023-04-23T02:48:51;99546.22;;;16.50;nan
62800;BME280;48842;51.046;13.796;2023-04-23T02:51:16;99548.03;;;16.48;nan
62800;BME280;48842;51.046;13.796;2023-04-23T02:53:41;99545.38;;;16.48;nan
62800;BME280;48842;51.046;13.796;2023-04-23T02:56:06;99545.38;;;16.48;nan
62800;BME280;48842;51.046;13.796;2023-04-23T02:58:32;99542.75;;;16.48;nan
62800;BME280;48842;51.046;13.796;2023-04-23T03:00:57;99544.53;;;16.48;nan
62800;BME280;48842;51.046;13.796;2023-04-23T03:03:24;99549.88;;;16.46;nan
62800;BME280;48842;51.046;13.796;2023-04-23T03:05:51;99549.03;;;16.46;nan
62800;BME280;48842;51.046;13.796;2023-04-23T03:08:16;99549.03;;;16.46;nan
62800;BME280;48842;51.046;13.796;2023-04-23T03:10:41;99541.13;;;16.44;nan
62800;BME280;48842;51.046;13.796;2023-04-23T03:13:07;99537.63;;;16.44;nan
62800;BME280;48842;51.046;13.796;2023-04-23T03:15:33;99549.97;;;16.43;nan
62800;BME280;48842;51.046;13.796;2023-04-23T03:17:58;99537.66;;;16.42;nan
62800;BME280;48842;51.046;13.796;2023-04-23T03:20:25;99531.53;;;16.42;nan
62800;BME280;48842;51.046;13.796;2023-04-23T03:22:50;99523.59;;;16.42;nan
62800;BME280;48842;51.046;13.796;2023-04-23T03:25:16;99524.50;;;16.40;nan
62800;BME280;48842;51.046;13.796;2023-04-23T03:27:41;99515.44;;;16.48;nan
62800;BME280;48842;51.046;13.796;2023-04-23T03:30:07;99509.19;;;16.50;nan
62800;BME280;48842;51.046;13.796;2023-04-23T03:32:34;99517.09;;;16.52;nan
62800;BME280;48842;51.046;13.796;2023-04-23T03:35:00;99514.38;;;16.53;nan
62800;BME280;48842;51.046;13.796;2023-04-23T03:37:26;99523.13;;;16.55;nan
62800;BME280;48842;51.046;13.796;2023-04-23T03:39:51;99502.84;;;16.56;nan
62800;BME280;48842;51.046;13.796;2023-04-23T03:42:16;99496.66;;;16.55;nan
62800;BME280;48842;51.046;13.796;2023-04-23T03:44:42;99501.06;;;16.56;nan
62800;BME280;48842;51.046;13.796;2023-04-23T03:47:07;99491.38;;;16.55;nan
62800;BME280;48842;51.046;13.796;2023-04-23T03:49:32;99480.75;;;16.57;nan
62800;BME280;48842;51.046;13.796;2023-04-23T03:51:57;99481.59;;;16.59;nan
62800;BME280;48842;51.046;13.796;2023-04-23T03:54:23;99480.59;;;16.62;nan
62800;BME280;48842;51.046;13.796;2023-04-23T03:56:49;99494.53;;;16.67;nan
62800;BME280;48842;51.046;13.796;2023-04-23T03:59:15;99495.31;;;16.69;nan
62800;BME280;48842;51.046;13.796;2023-04-23T04:01:40;99501.38;;;16.72;nan
62800;BME280;48842;51.046;13.796;2023-04-23T04:04:05;99483.56;;;16.78;nan
62800;BME280;48842;51.046;13.796;2023-04-23T04:06:31;99483.47;;;16.81;nan
62800;BME280;48842;51.046;13.796;2023-04-23T04:08:56;99488.72;;;16.82;nan
62800;BME280;48842;51.046;13.796;2023-04-23T04:11:22;99486.78;;;16.87;nan
62800;BME280;48842;51.046;13.796;2023-04-23T04:13:47;99485.75;;;16.91;nan
62800;BME280;48842;51.046;13.796;2023-04-23T04:16:12;99481.16;;;16.97;nan
62800;BME280;48842;51.046;13.796;2023-04-23T04:18:37;99488.06;;;17.01;nan
62800;BME280;48842;51.046;13.796;2023-04-23T04:21:03;99497.63;;;17.05;nan
62800;BME280;48842;51.046;13.796;2023-04-23T04:23:28;99491.31;;;17.09;nan
62800;BME280;48842;51.046;13.796;2023-04-23T04:25:54;99497.31;;;17.13;nan
62800;BME280;48842;51.046;13.796;2023-04-23T04:28:20;99491.94;;;17.16;nan
62800;BME280;48842;51.046;13.796;2023-04-23T04:30:46;99493.59;;;17.18;nan
62800;BME280;48842;51.046;13.796;2023-04-23T04:33:13;99498.78;;;17.21;nan
62800;BME280;48842;51.046;13.796;2023-04-23T04:35:39;99505.75;;;17.24;nan
62800;BME280;48842;51.046;13.796;2023-04-23T04:38:04;99495.03;;;17.27;nan
62800;BME280;48842;51.046;13.796;2023-04-23T04:40:29;99497.56;;;17.30;nan
62800;BME280;48842;51.046;13.796;2023-04-23T04:42:55;99509.78;;;17.34;nan
62800;BME280;48842;51.046;13.796;2023-04-23T04:45:21;99507.88;;;17.38;nan
62800;BME280;48842;51.046;13.796;2023-04-23T04:47:47;99504.25;;;17.40;nan
62800;BME280;48842;51.046;13.796;2023-04-23T04:50:12;99505.91;;;17.43;nan
62800;BME280;48842;51.046;13.796;2023-04-23T04:52:37;99511.91;;;17.48;nan
62800;BME280;48842;51.046;13.796;2023-04-23T04:55:03;99515.28;;;17.52;nan
62800;BME280;48842;51.046;13.796;2023-04-23T04:57:29;99509.81;;;17.56;nan
62800;BME280;48842;51.046;13.796;2023-04-23T04:59:54;99515.81;;;17.61;nan
62800;BME280;48842;51.046;13.796;2023-04-23T05:02:21;99507.75;;;17.65;nan
62800;BME280;48842;51.046;13.796;2023-04-23T05:04:47;99502.25;;;17.69;nan
62800;BME280;48842;51.046;13.796;2023-04-23T05:07:13;99509.16;;;17.73;nan
62800;BME280;48842;51.046;13.796;2023-04-23T05:09:38;99515.19;;;17.77;nan
62800;BME280;48842;51.046;13.796;2023-04-23T05:12:03;99519.47;;;17.81;nan
62800;BME280;48842;51.046;13.796;2023-04-23T05:14:31;99526.31;;;17.87;nan
62800;BME280;48842;51.046;13.796;2023-04-23T05:16:56;99518.28;;;17.88;nan
62800;BME280;48842;51.046;13.796;2023-04-23T05:19:22;99518.19;;;17.91;nan
62800;BME280;48842;51.046;13.796;2023-04-23T05:21:47;99520.72;;;17.94;nan
62800;BME280;48842;51.046;13.796;2023-04-23T05:24:12;99525.13;;;17.95;nan
62800;BME280;48842;51.046;13.796;2023-04-23T05:26:38;99528.59;;;17.98;nan
62800;BME280;48842;51.046;13.796;2023-04-23T05:29:03;99535.59;;;17.99;nan
62800;BME280;48842;51.046;13.796;2023-04-23T05:31:28;99527.56;;;18.00;nan
62800;BME280;48842;51.046;13.796;2023-04-23T05:33:54;99529.25;;;18.03;nan
62800;BME280;48842;51.046;13.796;2023-04-23T05:36:19;99532.72;;;18.05;nan
62800;BME280;48842;51.046;13.796;2023-04-23T05:38:45;99539.78;;;18.04;nan
62800;BME280;48842;51.046;13.796;2023-04-23T05:41:11;99543.31;;;18.05;nan
62800;BME280;48842;51.046;13.796;2023-04-23T05:43:36;99538.94;;;18.04;nan
62800;BME280;48842;51.046;13.796;2023-04-23T05:46:01;99544.22;;;18.04;nan
62800;BME280;48842;51.046;13.796;2023-04-23T05:48:28;99542.50;;;18.03;nan
62800;BME280;48842;51.046;13.796;2023-04-23T05:50:54;99545.22;;;18.01;nan
62800;BME280;48842;51.046;13.796;2023-04-23T05:53:19;99539.97;;;18.00;nan
62800;BME280;48842;51.046;13.796;2023-04-23T05:55:44;99530.28;;;17.99;nan
62800;BME280;48842;51.046;13.796;2023-04-23T05:58:11;99541.78;;;17.99;nan
62800;BME280;48842;51.046;13.796;2023-04-23T06:00:36;99541.78;;;17.99;nan
62800;BME280;48842;51.046;13.796;2023-04-23T06:03:01;99545.22;;;18.01;nan
62800;BME280;48842;51.046;13.796;2023-04-23T06:05:27;99541.59;;;18.04;nan
62800;BME280;48842;51.046;13.796;2023-04-23T06:07:52;99542.38;;;18.06;nan
62800;BME280;48842;51.046;13.796;2023-04-23T06:10:17;99536.94;;;18.09;nan
62800;BME280;48842;51.046;13.796;2023-04-23T06:12:42;99536.81;;;18.12;nan
62800;BME280;48842;51.046;13.796;2023-04-23T06:15:08;99533.13;;;18.16;nan
62800;BME280;48842;51.046;13.796;2023-04-23T06:17:34;99532.00;;;18.22;nan
62800;BME280;48842;51.046;13.796;2023-04-23T06:20:00;99535.28;;;18.28;nan
62800;BME280;48842;51.046;13.796;2023-04-23T06:22:25;99532.38;;;18.35;nan
62800;BME280;48842;51.046;13.796;2023-04-23T06:24:50;99540.00;;;18.42;nan
62800;BME280;48842;51.046;13.796;2023-04-23T06:27:16;99535.25;;;18.51;nan
62800;BME280;48842;51.046;13.796;2023-04-23T06:29:41;99534.84;;;18.60;nan
62800;BME280;48842;51.046;13.796;2023-04-23T06:32:06;99546.88;;;18.69;nan
62800;BME280;48842;51.046;13.796;2023-04-23T06:34:31;99539.47;;;18.77;nan
62800;BME280;48842;51.046;13.796;2023-04-23T06:36:57;99540.81;;;18.87;nan
62800;BME280;48842;51.046;13.796;2023-04-23T06:39:22;99544.00;;;18.95;nan
62800;BME280;48842;51.046;13.796;2023-04-23T06:41:47;99540.09;;;19.04;nan
62800;BME280;48842;51.046;13.796;2023-04-23T06:44:13;99545.06;;;19.12;nan
62800;BME280;48842;51.046;13.796;2023-04-23T06:46:38;99544.69;;;19.19;nan
62800;BME280;48842;51.046;13.796;2023-04-23T06:49:03;99551.53;;;19.25;nan
62800;BME280;48842;51.046;13.796;2023-04-23T06:51:28;99548.75;;;19.28;nan
62800;BME280;48842;51.046;13.796;2023-04-23T06:53:56;99544.25;;;19.30;nan
62800;BME280;48842;51.046;13.796;2023-04-23T06:56:21;99553.84;;;19.33;nan
62800;BME280;48842;51.046;13.796;2023-04-23T06:58:46;99547.53;;;19.35;nan
62800;BME280;48842;51.046;13.796;2023-04-23T07:01:12;99558.00;;;19.39;nan
62800;BME280;48842;51.046;13.796;2023-04-23T07:03:37;99558.91;;;19.39;nan
62800;BME280;48842;51.046;13.796;2023-04-23T07:06:02;99551.78;;;19.40;nan
62800;BME280;48842;51.046;13.796;2023-04-23T07:08:27;99557.09;;;19.40;nan
62800;BME280;48842;51.046;13.796;2023-04-23T07:10:53;99555.22;;;19.42;nan
62800;BME280;48842;51.046;13.796;2023-04-23T07:13:18;99558.81;;;19.41;nan
62800;BME280;48842;51.046;13.796;2023-04-23T07:15:43;99558.75;;;19.42;nan
62800;BME280;48842;51.046;13.796;2023-04-23T07:18:09;99558.63;;;19.45;nan
62800;BME280;48842;51.046;13.796;2023-04-23T07:20:34;99563.03;;;19.45;nan
62800;BME280;48842;51.046;13.796;2023-04-23T07:23:00;99558.59;;;19.26;nan
62800;BME280;48842;51.046;13.796;2023-04-23T07:25:25;99562.09;;;19.27;nan
62800;BME280;48842;51.046;13.796;2023-04-23T07:27:51;99561.16;;;19.28;nan
62800;BME280;48842;51.046;13.796;2023-04-23T07:30:18;99544.91;;;19.15;nan
62800;BME280;48842;51.046;13.796;2023-04-23T07:32:45;99560.84;;;19.15;nan
62800;BME280;48842;51.046;13.796;2023-04-23T07:35:10;99558.97;;;19.17;nan
62800;BME280;48842;51.046;13.796;2023-04-23T07:37:36;99558.91;;;19.18;nan
62800;BME280;48842;51.046;13.796;2023-04-23T07:40:02;99563.50;;;19.15;nan
62800;BME280;48842;51.046;13.796;2023-04-23T07:42:29;99574.06;;;18.96;nan
62800;BME280;48842;51.046;13.796;2023-04-23T07:44:54;99570.22;;;19.03;nan
62800;BME280;48842;51.046;13.796;2023-04-23T07:47:19;99589.91;;;18.97;nan
62800;BME280;48842;51.046;13.796;2023-04-23T07:49:45;99579.22;;;18.99;nan
62800;BME280;48842;51.046;13.796;2023-04-23T07:52:10;99573.50;;;18.88;nan
62800;BME280;48842;51.046;13.796;2023-04-23T07:54:35;99580.44;;;18.70;nan
62800;BME280;48842;51.046;13.796;2023-04-23T07:57:00;99578.28;;;18.79;nan
62800;BME280;48842;51.046;13.796;2023-04-23T07:59:27;99582.50;;;18.83;nan
62800;BME280;48842;51.046;13.796;2023-04-23T08:01:52;99575.31;;;18.87;nan
62800;BME280;48842;51.046;13.796;2023-04-23T08:04:17;99576.41;;;18.81;nan
62800;BME280;48842;51.046;13.796;2023-04-23T08:06:42;99578.06;;;18.84;nan
62800;BME280;48842;51.046;13.796;2023-04-23T08:09:08;99577.91;;;18.89;nan
62800;BME280;48842;51.046;13.796;2023-04-23T08:11:33;99580.16;;;18.98;nan
62800;BME280;48842;51.046;13.796;2023-04-23T08:13:58;99582.34;;;19.09;nan
62800;BME280;48842;51.046;13.796;2023-04-23T08:16:25;99575.72;;;19.19;nan
62800;BME280;48842;51.046;13.796;2023-04-23T08:18:50;99565.50;;;19.30;nan
62800;BME280;48842;51.046;13.796;2023-04-23T08:21:16;99579.13;;;19.42;nan
62800;BME280;48842;51.046;13.796;2023-04-23T08:23:41;99575.81;;;19.36;nan
62800;BME280;48842;51.046;13.796;2023-04-23T08:26:06;99580.31;;;19.34;nan
62800;BME280;48842;51.046;13.796;2023-04-23T08:28:32;99579.63;;;19.31;nan
62800;BME280;48842;51.046;13.796;2023-04-23T08:30:57;99578.63;;;19.33;nan
62800;BME280;48842;51.046;13.796;2023-04-23T08:33:22;99581.78;;;19.42;nan
62800;BME280;48842;51.046;13.796;2023-04-23T08:35:47;99589.50;;;19.48;nan
62800;BME280;48842;51.046;13.796;2023-04-23T08:38:13;99578.88;;;19.48;nan
62800;BME280;48842;51.046;13.796;2023-04-23T08:40:40;99584.97;;;19.50;nan
62800;BME280;48842;51.046;13.796;2023-04-23T08:43:09;99586.19;;;19.62;nan
62800;BME280;48842;51.046;13.796;2023-04-23T08:45:39;99584.50;;;19.80;nan
62800;BME280;48842;51.046;13.796;2023-04-23T08:48:06;99584.56;;;19.97;nan
62800;BME280;48842;51.046;13.796;2023-04-23T08:50:32;99591.41;;;20.03;nan
62800;BME280;48842;51.046;13.796;2023-04-23T08:52:57;99589.69;;;20.02;nan
62800;BME280;48842;51.046;13.796;2023-04-23T08:55:24;99590.84;;;19.96;nan
62800;BME280;48842;51.046;13.796;2023-04-23T08:57:50;99592.28;;;19.84;nan
62800;BME280;48842;51.046;13.796;2023-04-23T09:00:18;99598.78;;;19.77;nan
62800;BME280;48842;51.046;13.796;2023-04-23T09:02:45;99606.16;;;19.70;nan
62800;BME280;48842;51.046;13.796;2023-04-23T09:05:12;99595.91;;;19.63;nan
62800;BME280;48842;51.046;13.796;2023-04-23T09:07:37;99599.84;;;19.54;nan
62800;BME280;48842;51.046;13.796;2023-04-23T09:10:04;99599.91;;;19.52;nan
62800;BME280;48842;51.046;13.796;2023-04-23T09:12:30;99608.72;;;19.53;nan
62800;BME280;48842;51.046;13.796;2023-04-23T09:14:56;99604.69;;;19.44;nan
62800;BME280;48842;51.046;13.796;2023-04-23T09:17:22;99602.88;;;19.45;nan
62800;BME280;48842;51.046;13.796;2023-04-23T09:19:48;99613.81;;;19.18;nan
62800;BME280;48842;51.046;13.796;2023-04-23T09:22:14;99616.94;;;19.28;nan
62800;BME280;48842;51.046;13.796;2023-04-23T09:24:42;99617.53;;;19.14;nan
62800;BME280;48842;51.046;13.796;2023-04-23T09:27:08;99621.97;;;19.13;nan
62800;BME280;48842;51.046;13.796;2023-04-23T09:29:33;99614.28;;;18.87;nan
62800;BME280;48842;51.046;13.796;2023-04-23T09:32:08;99624.28;;;19.00;nan
62800;BME280;48842;51.046;13.796;2023-04-23T09:34:36;99619.53;;;19.09;nan
62800;BME280;48842;51.046;13.796;2023-04-23T09:37:03;99631.34;;;19.01;nan
62800;BME280;48842;51.046;13.796;2023-04-23T09:39:29;99614.72;;;18.96;nan
62800;BME280;48842;51.046;13.796;2023-04-23T09:42:01;99611.28;;;19.15;nan
62800;BME280;48842;51.046;13.796;2023-04-23T09:44:30;99615.53;;;19.19;nan
62800;BME280;48842;51.046;13.796;2023-04-23T09:46:56;99614.47;;;19.23;nan
62800;BME280;48842;51.046;13.796;2023-04-23T09:49:21;99613.41;;;19.27;nan
62800;BME280;48842;51.046;13.796;2023-04-23T09:51:47;99610.56;;;19.32;nan
62800;BME280;48842;51.046;13.796;2023-04-23T09:54:15;99614.84;;;19.34;nan
62800;BME280;48842;51.046;13.796;2023-04-23T09:56:42;99611.75;;;19.25;nan
62800;BME280;48842;51.046;13.796;2023-04-23T09:59:21;99609.53;;;19.34;nan
62800;BME280;48842;51.046;13.796;2023-04-23T10:01:46;99621.63;;;19.21;nan
62800;BME280;48842;51.046;13.796;2023-04-23T10:04:18;99610.44;;;19.14;nan
62800;BME280;48842;51.046;13.796;2023-04-23T10:06:44;99616.31;;;19.21;nan
62800;BME280;48842;51.046;13.796;2023-04-23T10:09:10;99609.81;;;19.28;nan
62800;BME280;48842;51.046;13.796;2023-04-23T10:11:35;99612.69;;;19.24;nan
62800;BME280;48842;51.046;13.796;2023-04-23T10:14:01;99612.19;;;19.34;nan
62800;BME280;48842;51.046;13.796;2023-04-23T10:16:27;99617.19;;;19.42;nan
62800;BME280;48842;51.046;13.796;2023-04-23T10:18:53;99612.72;;;19.43;nan
62800;BME280;48842;51.046;13.796;2023-04-23T10:21:25;99614.97;;;19.52;nan
62800;BME280;48842;51.046;13.796;2023-04-23T10:23:55;99599.56;;;19.60;nan
62800;BME280;48842;51.046;13.796;2023-04-23T10:26:23;99595.69;;;19.67;nan
62800;BME280;48842;51.046;13.796;2023-04-23T10:28:53;99599.13;;;19.69;nan
62800;BME280;48842;51.046;13.796;2023-04-23T10:31:19;99604.06;;;19.79;nan
62800;BME280;48842;51.046;13.796;2023-04-23T10:33:46;99601.97;;;19.85;nan
62800;BME280;48842;51.046;13.796;2023-04-23T10:36:12;99602.78;;;19.87;nan
62800;BME280;48842;51.046;13.796;2023-04-23T10:38:39;99598.31;;;19.88;nan
62800;BME280;48842;51.046;13.796;2023-04-23T10:41:06;99601.13;;;19.85;nan
62800;BME280;48842;51.046;13.796;2023-04-23T10:43:32;99598.06;;;19.74;nan
62800;BME280;48842;51.046;13.796;2023-04-23T10:45:59;99590.06;;;19.74;nan
62800;BME280;48842;51.046;13.796;2023-04-23T10:48:27;99586.72;;;19.70;nan
62800;BME280;48842;51.046;13.796;2023-04-23T10:50:58;99593.59;;;19.74;nan
62800;BME280;48842;51.046;13.796;2023-04-23T10:53:24;99593.94;;;19.66;nan
62800;BME280;48842;51.046;13.796;2023-04-23T10:56:03;99600.19;;;19.65;nan
62800;BME280;48842;51.046;13.796;2023-04-23T10:58:47;99598.97;;;19.73;nan
62800;BME280;48842;51.046;13.796;2023-04-23T11:01:12;99594.13;;;19.82;nan
62800;BME280;48842;51.046;13.796;2023-04-23T11:03:38;99604.47;;;19.88;nan
62800;BME280;48842;51.046;13.796;2023-04-23T11:06:06;99605.69;;;19.81;nan
62800;BME280;48842;51.046;13.796;2023-04-23T11:08:33;99599.75;;;19.95;nan
62800;BME280;48842;51.046;13.796;2023-04-23T11:11:00;99598.31;;;19.88;nan
62800;BME280;48842;51.046;13.796;2023-04-23T11:13:27;99598.16;;;19.91;nan
62800;BME280;48842;51.046;13.796;2023-04-23T11:16:11;99598.25;;;19.90;nan
62800;BME280;48842;51.046;13.796;2023-04-23T11:19:00;99597.47;;;19.87;nan
62800;BME280;48842;51.046;13.796;2023-04-23T11:24:26;99589.69;;;19.62;nan
62800;BME280;48842;51.046;13.796;2023-04-23T11:26:51;99594.22;;;19.60;nan
62800;BME280;48842;51.046;13.796;2023-04-23T11:29:21;99595.53;;;19.70;nan
62800;BME280;48842;51.046;13.796;2023-04-23T11:31:47;99598.97;;;19.73;nan
62800;BME280;48842;51.046;13.796;2023-04-23T11:34:13;99600.06;;;19.68;nan
62800;BME280;48842;51.046;13.796;2023-04-23T11:36:39;99600.00;;;19.70;nan
62800;BME280;48842;51.046;13.796;2023-04-23T11:39:04;99610.63;;;19.70;nan
62800;BME280;48842;51.046;13.796;2023-04-23T11:41:30;99605.78;;;19.59;nan
62800;BME280;48842;51.046;13.796;2023-04-23T11:43:56;99608.31;;;19.62;nan
62800;BME280;48842;51.046;13.796;2023-04-23T11:46:23;99595.97;;;19.61;nan
62800;BME280;48842;51.046;13.796;2023-04-23T11:48:49;99602.59;;;19.71;nan
62800;BME280;48842;51.046;13.796;2023-04-23T11:51:14;99602.59;;;19.71;nan
62800;BME280;48842;51.046;13.796;2023-04-23T11:53:46;99600.25;;;19.84;nan
62800;BME280;48842;51.046;13.796;2023-04-23T11:56:15;99601.19;;;20.02;nan
62800;BME280;48842;51.046;13.796;2023-04-23T11:58:40;99597.00;;;20.16;nan
62800;BME280;48842;51.046;13.796;2023-04-23T12:01:05;99598.59;;;20.20;nan
62800;BME280;48842;51.046;13.796;2023-04-23T12:03:31;99598.31;;;20.07;nan
62800;BME280;48842;51.046;13.796;2023-04-23T12:05:57;99595.22;;;19.97;nan
62800;BME280;48842;51.046;13.796;2023-04-23T12:08:22;99598.47;;;19.85;nan
62800;BME280;48842;51.046;13.796;2023-04-23T12:10:51;99604.63;;;19.85;nan
62800;BME280;48842;51.046;13.796;2023-04-23T12:13:21;99595.28;;;19.96;nan
62800;BME280;48842;51.046;13.796;2023-04-23T12:15:49;99598.00;;;19.94;nan
62800;BME280;48842;51.046;13.796;2023-04-23T12:18:15;99599.81;;;19.94;nan
62800;BME280;48842;51.046;13.796;2023-04-23T12:20:41;99600.03;;;19.89;nan
62800;BME280;48842;51.046;13.796;2023-04-23T12:23:06;99608.50;;;19.78;nan
62800;BME280;48842;51.046;13.796;2023-04-23T12:25:32;99603.91;;;19.82;nan
62800;BME280;48842;51.046;13.796;2023-04-23T12:27:59;99603.19;;;19.78;nan
62800;BME280;48842;51.046;13.796;2023-04-23T12:30:28;99609.31;;;19.80;nan
62800;BME280;48842;51.046;13.796;2023-04-23T12:33:01;99612.94;;;19.78;nan
62800;BME280;48842;51.046;13.796;2023-04-23T12:35:44;99611.91;;;19.82;nan
62800;BME280;48842;51.046;13.796;2023-04-23T12:38:24;99602.03;;;19.84;nan
62800;BME280;48842;51.046;13.796;2023-04-23T12:40:51;99598.31;;;19.88;nan
62800;BME280;48842;51.046;13.796;2023-04-23T12:43:16;99594.72;;;19.89;nan
62800;BME280;48842;51.046;13.796;2023-04-23T12:45:41;99599.69;;;19.97;nan
62800;BME280;48842;51.046;13.796;2023-04-23T12:48:07;99590.25;;;20.09;nan
62800;BME280;48842;51.046;13.796;2023-04-23T12:50:32;99590.22;;;20.28;nan
62800;BME280;48842;51.046;13.796;2023-04-23T12:52:57;99586.75;;;20.45;nan
62800;BME280;48842;51.046;13.796;2023-04-23T12:55:22;99589.03;;;20.52;nan
62800;BME280;48842;51.046;13.796;2023-04-23T12:57:48;99587.03;;;20.57;nan
62800;BME280;48842;51.046;13.796;2023-04-23T13:00:13;99569.84;;;20.63;nan
62800;BME280;48842;51.046;13.796;2023-04-23T13:02:38;99569.03;;;20.80;nan
62800;BME280;48842;51.046;13.796;2023-04-23T13:05:04;99577.59;;;21.04;nan
62800;BME280;48842;51.046;13.796;2023-04-23T13:07:29;99569.84;;;21.33;nan